sensor_id;sensor_type;location;lat;lon;timestamp;pressure;altitude;pressure_sealevel;temperature;humidity
31346;BME280;21711;49.708;18.568;2023-02-22T00:01:54;97335.44;;;6.68;100.00
31346;BME280;21711;49.708;18.568;2023-02-22T00:04:37;97333.09;;;6.72;100.00
31346;BME280;21711;49.708;18.568;2023-02-22T00:07:07;97333.19;;;6.77;100.00
31346;BME280;21711;49.708;18.568;2023-02-22T00:09:35;97324.53;;;6.82;100.00
31346;BME280;21711;49.708;18.568;2023-02-22T00:12:02;97338.09;;;6.74;100.00
31346;BME280;21711;49.708;18.568;2023-02-22T00:14:29;97336.88;;;6.59;100.00
31346;BME280;21711;49.708;18.568;2023-02-22T00:16:56;97335.94;;;6.65;100.00
31346;BME280;21711;49.708;18.568;2023-02-22T00:19:26;97332.44;;;6.60;100.00
31346;BME280;21711;49.708;18.568;2023-02-22T00:21:56;97330.72;;;6.48;100.00
31346;BME280;21711;49.708;18.568;2023-02-22T00:24:24;97339.38;;;6.26;100.00
31346;BME280;21711;49.708;18.568;2023-02-22T00:26:53;97329.22;;;6.13;100.00
31346;BME280;21711;49.708;18.568;2023-02-22T00:29:25;97341.72;;;6.05;100.00
31346;BME280;21711;49.708;18.568;2023-02-22T00:31:53;97336.75;;;5.75;100.00
31346;BME280;21711;49.708;18.568;2023-02-22T00:34:20;97323.72;;;5.63;100.00
31346;BME280;21711;49.708;18.568;2023-02-22T00:36:50;97326.91;;;5.65;100.00
31346;BME280;21711;49.708;18.568;2023-02-22T00:39:17;97332.09;;;5.60;100.00
31346;BME280;21711;49.708;18.568;2023-02-22T00:41:44;97331.25;;;5.25;100.00
31346;BME280;21711;49.708;18.568;2023-02-22T00:44:12;97325.31;;;5.00;100.00
31346;BME280;21711;49.708;18.568;2023-02-22T00:46:39;97321.88;;;4.83;100.00
31346;BME280;21711;49.708;18.568;2023-02-22T00:49:06;97318.13;;;4.79;100.00
31346;BME280;21711;49.708;18.568;2023-02-22T00:51:33;97324.19;;;4.67;100.00
31346;BME280;21711;49.708;18.568;2023-02-22T00:54:01;97315.66;;;4.60;100.00
31346;BME280;21711;49.708;18.568;2023-02-22T00:56:28;97324.09;;;4.62;100.00
31346;BME280;21711;49.708;18.568;2023-02-22T00:58:56;97321.81;;;4.54;100.00
31346;BME280;21711;49.708;18.568;2023-02-22T01:01:23;97321.59;;;4.55;100.00
31346;BME280;21711;49.708;18.568;2023-02-22T01:03:51;97319.88;;;4.61;100.00
31346;BME280;21711;49.708;18.568;2023-02-22T01:06:19;97319.72;;;4.80;100.00
31346;BME280;21711;49.708;18.568;2023-02-22T01:08:47;97326.06;;;4.84;100.00
31346;BME280;21711;49.708;18.568;2023-02-22T01:11:16;97327.72;;;5.02;100.00
31346;BME280;21711;49.708;18.568;2023-02-22T01:13:44;97331.78;;;5.10;100.00
31346;BME280;21711;49.708;18.568;2023-02-22T01:16:12;97320.91;;;5.18;100.00
31346;BME280;21711;49.708;18.568;2023-02-22T01:18:39;97320.63;;;5.32;100.00
31346;BME280;21711;49.708;18.568;2023-02-22T01:21:06;97317.63;;;5.40;100.00
31346;BME280;21711;49.708;18.568;2023-02-22T01:23:34;97328.34;;;5.38;100.00
31346;BME280;21711;49.708;18.568;2023-02-22T01:26:03;97329.31;;;5.49;100.00
31346;BME280;21711;49.708;18.568;2023-02-22T01:28:33;97329.63;;;5.53;100.00
31346;BME280;21711;49.708;18.568;2023-02-22T01:31:01;97334.22;;;5.63;100.00
31346;BME280;21711;49.708;18.568;2023-02-22T01:33:30;97321.66;;;5.48;100.00
31346;BME280;21711;49.708;18.568;2023-02-22T01:35:57;97328.59;;;5.54;100.00
31346;BME280;21711;49.708;18.568;2023-02-22T01:38:26;97321.97;;;5.69;100.00
31346;BME280;21711;49.708;18.568;2023-02-22T01:40:53;97322.22;;;5.67;100.00
31346;BME280;21711;49.708;18.568;2023-02-22T01:43:30;97323.84;;;5.68;100.00
31346;BME280;21711;49.708;18.568;2023-02-22T01:46:22;97335.34;;;5.67;100.00
31346;BME280;21711;49.708;18.568;2023-02-22T01:49:03;97325.34;;;5.81;100.00
31346;BME280;21711;49.708;18.568;2023-02-22T01:51:41;97327.22;;;5.86;100.00
31346;BME280;21711;49.708;18.568;2023-02-22T01:54:19;97320.06;;;5.98;100.00
31346;BME280;21711;49.708;18.568;2023-02-22T01:57:19;97323.66;;;6.09;100.00
31346;BME280;21711;49.708;18.568;2023-02-22T01:59:56;97317.13;;;6.12;100.00
31346;BME280;21711;49.708;18.568;2023-02-22T02:02:25;97319.53;;;6.13;100.00
31346;BME280;21711;49.708;18.568;2023-02-22T02:04:54;97328.97;;;6.14;100.00
31346;BME280;21711;49.708;18.568;2023-02-22T02:07:23;97320.13;;;6.21;100.00
31346;BME280;21711;49.708;18.568;2023-02-22T02:09:57;97317.31;;;6.27;100.00
31346;BME280;21711;49.708;18.568;2023-02-22T02:12:28;97314.00;;;6.32;100.00
31346;BME280;21711;49.708;18.568;2023-02-22T02:15:22;97315.84;;;6.14;100.00
31346;BME280;21711;49.708;18.568;2023-02-22T02:17:52;97318.78;;;6.18;100.00
31346;BME280;21711;49.708;18.568;2023-02-22T02:38:04;97315.69;;;6.21;100.00
31346;BME280;21711;49.708;18.568;2023-02-22T02:40:49;97306.47;;;6.18;100.00
31346;BME280;21711;49.708;18.568;2023-02-22T02:47:04;97309.94;;;6.24;100.00
31346;BME280;21711;49.708;18.568;2023-02-22T02:50:20;97307.00;;;6.21;100.00
31346;BME280;21711;49.708;18.568;2023-02-22T02:52:53;97304.38;;;6.21;100.00
31346;BME280;21711;49.708;18.568;2023-02-22T02:55:22;97315.50;;;6.28;100.00
31346;BME280;21711;49.708;18.568;2023-02-22T02:57:50;97307.75;;;6.16;100.00
31346;BME280;21711;49.708;18.568;2023-02-22T03:00:21;97311.94;;;6.17;100.00
31346;BME280;21711;49.708;18.568;2023-02-22T03:11:29;97318.66;;;6.30;100.00
31346;BME280;21711;49.708;18.568;2023-02-22T03:14:18;97321.28;;;6.30;100.00
31346;BME280;21711;49.708;18.568;2023-02-22T03:19:43;97322.66;;;6.32;100.00
31346;BME280;21711;49.708;18.568;2023-02-22T03:22:50;97317.38;;;6.32;100.00
31346;BME280;21711;49.708;18.568;2023-02-22T03:25:36;97318.38;;;6.26;100.00
31346;BME280;21711;49.708;18.568;2023-02-22T03:28:10;97322.03;;;5.91;100.00
31346;BME280;21711;49.708;18.568;2023-02-22T03:31:24;97328.56;;;5.88;100.00
31346;BME280;21711;49.708;18.568;2023-02-22T03:34:04;97329.25;;;5.61;100.00
31346;BME280;21711;49.708;18.568;2023-02-22T03:36:43;97325.72;;;5.56;100.00
31346;BME280;21711;49.708;18.568;2023-02-22T03:39:15;97327.06;;;5.58;100.00
31346;BME280;21711;49.708;18.568;2023-02-22T03:41:48;97323.34;;;5.71;100.00
31346;BME280;21711;49.708;18.568;2023-02-22T03:44:26;97324.75;;;5.62;100.00
31346;BME280;21711;49.708;18.568;2023-02-22T03:46:55;97326.19;;;5.70;100.00
31346;BME280;21711;49.708;18.568;2023-02-22T03:49:48;97333.19;;;5.81;100.00
31346;BME280;21711;49.708;18.568;2023-02-22T03:52:18;97330.75;;;5.74;100.00
31346;BME280;21711;49.708;18.568;2023-02-22T03:54:46;97335.75;;;5.76;100.00
31346;BME280;21711;49.708;18.568;2023-02-22T03:57:25;97330.16;;;5.72;100.00
31346;BME280;21711;49.708;18.568;2023-02-22T04:00:08;97341.78;;;5.76;100.00
31346;BME280;21711;49.708;18.568;2023-02-22T04:02:40;97331.78;;;5.73;100.00
31346;BME280;21711;49.708;18.568;2023-02-22T04:05:12;97334.63;;;5.72;100.00
31346;BME280;21711;49.708;18.568;2023-02-22T04:07:41;97333.13;;;5.76;100.00
31346;BME280;21711;49.708;18.568;2023-02-22T04:10:12;97331.28;;;5.76;100.00
31346;BME280;21711;49.708;18.568;2023-02-22T04:12:42;97332.47;;;5.86;100.00
31346;BME280;21711;49.708;18.568;2023-02-22T04:15:17;97339.22;;;5.82;100.00
31346;BME280;21711;49.708;18.568;2023-02-22T04:17:45;97339.94;;;5.94;100.00
31346;BME280;21711;49.708;18.568;2023-02-22T04:20:15;97345.13;;;5.89;100.00
31346;BME280;21711;49.708;18.568;2023-02-22T04:23:03;97338.13;;;5.95;100.00
31346;BME280;21711;49.708;18.568;2023-02-22T04:25:30;97333.59;;;6.07;100.00
31346;BME280;21711;49.708;18.568;2023-02-22T04:28:06;97335.19;;;6.08;100.00
31346;BME280;21711;49.708;18.568;2023-02-22T04:30:41;97335.09;;;5.86;100.00
31346;BME280;21711;49.708;18.568;2023-02-22T04:33:13;97329.31;;;5.84;100.00
31346;BME280;21711;49.708;18.568;2023-02-22T04:35:42;97344.25;;;5.66;100.00
31346;BME280;21711;49.708;18.568;2023-02-22T04:38:09;97342.81;;;5.58;100.00
31346;BME280;21711;49.708;18.568;2023-02-22T04:40:38;97346.06;;;5.48;100.00
31346;BME280;21711;49.708;18.568;2023-02-22T04:43:06;97340.50;;;5.45;100.00
31346;BME280;21711;49.708;18.568;2023-02-22T04:45:34;97341.53;;;5.44;100.00
31346;BME280;21711;49.708;18.568;2023-02-22T04:48:02;97338.75;;;5.50;100.00
31346;BME280;21711;49.708;18.568;2023-02-22T04:50:30;97340.19;;;5.58;100.00
31346;BME280;21711;49.708;18.568;2023-02-22T04:52:57;97341.84;;;5.47;100.00
31346;BME280;21711;49.708;18.568;2023-02-22T04:55:24;97339.72;;;5.44;100.00
31346;BME280;21711;49.708;18.568;2023-02-22T04:57:54;97335.97;;;5.40;100.00
31346;BME280;21711;49.708;18.568;2023-02-22T05:00:22;97335.56;;;5.48;100.00
31346;BME280;21711;49.708;18.568;2023-02-22T05:02:54;97337.81;;;5.57;100.00
31346;BME280;21711;49.708;18.568;2023-02-22T05:05:22;97335.59;;;5.65;100.00
31346;BME280;21711;49.708;18.568;2023-02-22T05:07:49;97333.84;;;5.71;100.00
31346;BME280;21711;49.708;18.568;2023-02-22T05:10:17;97338.38;;;5.76;100.00
31346;BME280;21711;49.708;18.568;2023-02-22T05:12:45;97345.84;;;5.67;100.00
31346;BME280;21711;49.708;18.568;2023-02-22T05:15:19;97334.63;;;5.55;100.00
31346;BME280;21711;49.708;18.568;2023-02-22T05:17:47;97340.28;;;5.63;100.00
31346;BME280;21711;49.708;18.568;2023-02-22T05:20:26;97345.59;;;5.69;100.00
31346;BME280;21711;49.708;18.568;2023-02-22T05:22:56;97349.41;;;5.78;100.00
31346;BME280;21711;49.708;18.568;2023-02-22T05:25:24;97338.53;;;5.69;100.00
31346;BME280;21711;49.708;18.568;2023-02-22T05:27:59;97347.59;;;5.78;100.00
31346;BME280;21711;49.708;18.568;2023-02-22T05:30:30;97347.75;;;5.89;100.00
31346;BME280;21711;49.708;18.568;2023-02-22T05:32:59;97348.38;;;5.79;100.00
31346;BME280;21711;49.708;18.568;2023-02-22T05:35:27;97350.31;;;5.84;100.00
31346;BME280;21711;49.708;18.568;2023-02-22T05:37:55;97352.94;;;5.84;100.00
31346;BME280;21711;49.708;18.568;2023-02-22T05:40:25;97353.69;;;5.84;100.00
31346;BME280;21711;49.708;18.568;2023-02-22T05:42:54;97357.75;;;5.75;100.00
31346;BME280;21711;49.708;18.568;2023-02-22T05:45:25;97355.56;;;5.84;100.00
31346;BME280;21711;49.708;18.568;2023-02-22T05:47:53;97354.28;;;5.69;100.00
31346;BME280;21711;49.708;18.568;2023-02-22T05:50:21;97358.78;;;5.57;100.00
31346;BME280;21711;49.708;18.568;2023-02-22T05:52:49;97358.19;;;5.66;100.00
31346;BME280;21711;49.708;18.568;2023-02-22T05:55:20;97362.00;;;5.76;100.00
31346;BME280;21711;49.708;18.568;2023-02-22T05:57:47;97368.75;;;5.55;100.00
31346;BME280;21711;49.708;18.568;2023-02-22T06:00:33;97371.75;;;5.63;100.00
31346;BME280;21711;49.708;18.568;2023-02-22T06:03:06;97371.69;;;5.75;100.00
31346;BME280;21711;49.708;18.568;2023-02-22T06:05:35;97370.81;;;5.87;100.00
31346;BME280;21711;49.708;18.568;2023-02-22T06:08:04;97379.56;;;5.92;100.00
31346;BME280;21711;49.708;18.568;2023-02-22T06:10:32;97376.63;;;5.72;100.00
31346;BME280;21711;49.708;18.568;2023-02-22T06:13:02;97380.66;;;5.62;100.00
31346;BME280;21711;49.708;18.568;2023-02-22T06:15:31;97392.66;;;5.58;100.00
31346;BME280;21711;49.708;18.568;2023-02-22T06:17:58;97390.72;;;5.53;100.00
31346;BME280;21711;49.708;18.568;2023-02-22T06:20:28;97392.75;;;5.63;100.00
31346;BME280;21711;49.708;18.568;2023-02-22T06:22:57;97388.56;;;5.79;100.00
31346;BME280;21711;49.708;18.568;2023-02-22T06:25:28;97397.88;;;6.04;100.00
31346;BME280;21711;49.708;18.568;2023-02-22T06:28:00;97396.50;;;6.02;100.00
31346;BME280;21711;49.708;18.568;2023-02-22T06:30:29;97388.84;;;6.00;100.00
31346;BME280;21711;49.708;18.568;2023-02-22T06:32:56;97395.25;;;6.22;100.00
31346;BME280;21711;49.708;18.568;2023-02-22T06:35:24;97401.78;;;6.19;100.00
31346;BME280;21711;49.708;18.568;2023-02-22T06:37:52;97401.78;;;6.19;100.00
31346;BME280;21711;49.708;18.568;2023-02-22T06:40:19;97408.94;;;6.24;100.00
31346;BME280;21711;49.708;18.568;2023-02-22T06:42:48;97414.06;;;6.13;100.00
31346;BME280;21711;49.708;18.568;2023-02-22T06:45:17;97419.44;;;6.24;100.00
31346;BME280;21711;49.708;18.568;2023-02-22T06:47:44;97425.16;;;6.38;100.00
31346;BME280;21711;49.708;18.568;2023-02-22T06:52:50;97419.19;;;6.42;100.00
31346;BME280;21711;49.708;18.568;2023-02-22T06:55:23;97428.00;;;6.53;100.00
31346;BME280;21711;49.708;18.568;2023-02-22T06:57:51;97417.19;;;6.72;100.00
31346;BME280;21711;49.708;18.568;2023-02-22T07:00:22;97419.25;;;6.48;100.00
31346;BME280;21711;49.708;18.568;2023-02-22T07:02:53;97422.66;;;6.48;100.00
31346;BME280;21711;49.708;18.568;2023-02-22T07:05:23;97429.94;;;6.24;100.00
31346;BME280;21711;49.708;18.568;2023-02-22T07:07:54;97425.88;;;6.33;100.00
31346;BME280;21711;49.708;18.568;2023-02-22T07:10:28;97426.03;;;6.43;100.00
31346;BME280;21711;49.708;18.568;2023-02-22T07:12:56;97433.81;;;6.55;100.00
31346;BME280;21711;49.708;18.568;2023-02-22T07:15:25;97434.69;;;6.61;100.00
31346;BME280;21711;49.708;18.568;2023-02-22T07:17:54;97428.97;;;6.47;100.00
31346;BME280;21711;49.708;18.568;2023-02-22T07:20:22;97436.03;;;6.64;100.00
31346;BME280;21711;49.708;18.568;2023-02-22T07:22:51;97435.09;;;6.53;100.00
31346;BME280;21711;49.708;18.568;2023-02-22T07:25:19;97429.69;;;6.82;100.00
31346;BME280;21711;49.708;18.568;2023-02-22T07:27:46;97437.88;;;6.86;100.00
31346;BME280;21711;49.708;18.568;2023-02-22T07:30:29;97444.19;;;6.45;100.00
31346;BME280;21711;49.708;18.568;2023-02-22T07:33:00;97433.78;;;6.33;100.00
31346;BME280;21711;49.708;18.568;2023-02-22T07:35:30;97435.75;;;6.26;100.00
31346;BME280;21711;49.708;18.568;2023-02-22T07:37:58;97436.88;;;6.30;100.00
31346;BME280;21711;49.708;18.568;2023-02-22T07:40:26;97441.22;;;6.24;100.00
31346;BME280;21711;49.708;18.568;2023-02-22T07:45:34;97430.50;;;6.82;100.00
31346;BME280;21711;49.708;18.568;2023-02-22T07:48:04;97430.97;;;6.79;100.00
31346;BME280;21711;49.708;18.568;2023-02-22T07:50:33;97428.22;;;6.91;100.00
31346;BME280;21711;49.708;18.568;2023-02-22T07:53:05;97434.00;;;7.10;100.00
31346;BME280;21711;49.708;18.568;2023-02-22T07:55:33;97438.72;;;7.14;100.00
31346;BME280;21711;49.708;18.568;2023-02-22T07:58:04;97433.63;;;7.29;100.00
31346;BME280;21711;49.708;18.568;2023-02-22T08:00:38;97430.28;;;7.34;100.00
31346;BME280;21711;49.708;18.568;2023-02-22T08:03:09;97433.22;;;7.37;100.00
31346;BME280;21711;49.708;18.568;2023-02-22T08:05:39;97435.78;;;7.32;100.00
31346;BME280;21711;49.708;18.568;2023-02-22T08:08:07;97433.97;;;7.60;100.00
31346;BME280;21711;49.708;18.568;2023-02-22T08:10:35;97432.50;;;8.08;100.00
31346;BME280;21711;49.708;18.568;2023-02-22T08:13:04;97436.75;;;8.47;100.00
31346;BME280;21711;49.708;18.568;2023-02-22T08:15:35;97432.81;;;8.49;100.00
31346;BME280;21711;49.708;18.568;2023-02-22T08:18:09;97434.47;;;8.55;100.00
31346;BME280;21711;49.708;18.568;2023-02-22T08:20:38;97434.00;;;8.74;100.00
31346;BME280;21711;49.708;18.568;2023-02-22T08:23:08;97427.91;;;8.58;100.00
31346;BME280;21711;49.708;18.568;2023-02-22T08:25:35;97439.88;;;8.87;100.00
31346;BME280;21711;49.708;18.568;2023-02-22T08:28:16;97430.25;;;9.18;100.00
31346;BME280;21711;49.708;18.568;2023-02-22T08:30:44;97432.13;;;9.23;100.00
31346;BME280;21711;49.708;18.568;2023-02-22T08:33:14;97436.38;;;9.34;100.00
31346;BME280;21711;49.708;18.568;2023-02-22T08:35:42;97432.97;;;9.39;100.00
31346;BME280;21711;49.708;18.568;2023-02-22T08:38:31;97430.72;;;9.05;100.00
31346;BME280;21711;49.708;18.568;2023-02-22T08:41:00;97429.97;;;9.10;100.00
31346;BME280;21711;49.708;18.568;2023-02-22T08:43:27;97432.72;;;9.51;100.00
31346;BME280;21711;49.708;18.568;2023-02-22T08:45:54;97432.50;;;9.94;100.00
31346;BME280;21711;49.708;18.568;2023-02-22T08:48:24;97439.63;;;10.20;100.00
31346;BME280;21711;49.708;18.568;2023-02-22T08:50:51;97439.34;;;10.42;100.00
31346;BME280;21711;49.708;18.568;2023-02-22T08:53:19;97441.47;;;10.45;100.00
31346;BME280;21711;49.708;18.568;2023-02-22T08:55:46;97435.41;;;10.29;100.00
31346;BME280;21711;49.708;18.568;2023-02-22T08:58:15;97443.03;;;10.57;100.00
31346;BME280;21711;49.708;18.568;2023-02-22T09:00:42;97437.25;;;10.08;100.00
31346;BME280;21711;49.708;18.568;2023-02-22T09:03:13;97431.44;;;10.11;100.00
31346;BME280;21711;49.708;18.568;2023-02-22T09:05:44;97448.00;;;10.84;100.00
31346;BME280;21711;49.708;18.568;2023-02-22T09:08:11;97446.19;;;11.80;100.00
31346;BME280;21711;49.708;18.568;2023-02-22T09:10:39;97444.47;;;12.35;100.00
31346;BME280;21711;49.708;18.568;2023-02-22T09:13:06;97448.97;;;13.13;100.00
31346;BME280;21711;49.708;18.568;2023-02-22T09:15:34;97454.34;;;14.98;84.26
31346;BME280;21711;49.708;18.568;2023-02-22T09:18:03;97451.53;;;15.83;67.59
31346;BME280;21711;49.708;18.568;2023-02-22T09:20:31;97460.41;;;16.78;54.37
31346;BME280;21711;49.708;18.568;2023-02-22T09:22:58;97456.59;;;15.70;57.33
31346;BME280;21711;49.708;18.568;2023-02-22T09:25:29;97452.03;;;14.50;60.08
31346;BME280;21711;49.708;18.568;2023-02-22T09:27:57;97451.09;;;12.92;65.18
31346;BME280;21711;49.708;18.568;2023-02-22T09:30:31;97449.25;;;11.58;67.66
31346;BME280;21711;49.708;18.568;2023-02-22T09:33:12;97448.72;;;11.11;67.53
31346;BME280;21711;49.708;18.568;2023-02-22T09:35:41;97448.16;;;11.14;67.28
31346;BME280;21711;49.708;18.568;2023-02-22T09:38:09;97447.13;;;11.10;67.65
31346;BME280;21711;49.708;18.568;2023-02-22T09:40:41;97440.50;;;11.12;66.65
31346;BME280;21711;49.708;18.568;2023-02-22T09:43:29;97443.19;;;11.57;69.45
31346;BME280;21711;49.708;18.568;2023-02-22T09:52:16;97434.34;;;12.42;61.20
31346;BME280;21711;49.708;18.568;2023-02-22T09:58:12;97433.00;;;10.64;71.38
31346;BME280;21711;49.708;18.568;2023-02-22T10:00:42;97428.25;;;10.56;70.30
31346;BME280;21711;49.708;18.568;2023-02-22T10:06:23;97420.09;;;9.79;73.13
31346;BME280;21711;49.708;18.568;2023-02-22T10:08:54;97423.75;;;9.47;75.46
31346;BME280;21711;49.708;18.568;2023-02-22T10:11:57;97418.47;;;9.63;74.75
31346;BME280;21711;49.708;18.568;2023-02-22T10:25:58;97416.66;;;10.10;70.07
31346;BME280;21711;49.708;18.568;2023-02-22T10:28:58;97422.31;;;10.90;70.78
31346;BME280;21711;49.708;18.568;2023-02-22T10:31:33;97426.88;;;10.79;70.61
31346;BME280;21711;49.708;18.568;2023-02-22T10:34:19;97421.53;;;10.89;70.49
31346;BME280;21711;49.708;18.568;2023-02-22T10:36:59;97419.25;;;10.36;70.21
31346;BME280;21711;49.708;18.568;2023-02-22T10:39:31;97416.34;;;10.37;71.18
31346;BME280;21711;49.708;18.568;2023-02-22T10:42:04;97418.50;;;10.46;69.90
31346;BME280;21711;49.708;18.568;2023-02-22T10:44:36;97419.50;;;10.65;69.51
31346;BME280;21711;49.708;18.568;2023-02-22T10:47:13;97417.53;;;10.97;69.15
31346;BME280;21711;49.708;18.568;2023-02-22T10:49:52;97423.38;;;10.94;66.95
31346;BME280;21711;49.708;18.568;2023-02-22T10:52:29;97420.50;;;11.41;65.39
31346;BME280;21711;49.708;18.568;2023-02-22T10:54:59;97415.44;;;11.44;65.98
31346;BME280;21711;49.708;18.568;2023-02-22T10:57:44;97405.84;;;11.09;66.91
31346;BME280;21711;49.708;18.568;2023-02-22T11:02:59;97407.47;;;10.99;68.72
31346;BME280;21711;49.708;18.568;2023-02-22T11:05:38;97408.47;;;11.09;68.83
31346;BME280;21711;49.708;18.568;2023-02-22T11:08:29;97412.28;;;10.92;65.84
31346;BME280;21711;49.708;18.568;2023-02-22T11:11:02;97403.56;;;10.81;69.92
31346;BME280;21711;49.708;18.568;2023-02-22T11:13:54;97393.94;;;11.06;70.45
31346;BME280;21711;49.708;18.568;2023-02-22T11:16:49;97401.22;;;11.30;69.05
31346;BME280;21711;49.708;18.568;2023-02-22T11:19:22;97399.81;;;10.98;70.05
31346;BME280;21711;49.708;18.568;2023-02-22T11:21:58;97393.69;;;11.53;68.40
31346;BME280;21711;49.708;18.568;2023-02-22T11:24:49;97403.06;;;11.75;66.31
31346;BME280;21711;49.708;18.568;2023-02-22T11:27:36;97398.91;;;11.63;68.36
31346;BME280;21711;49.708;18.568;2023-02-22T11:30:26;97392.50;;;11.29;68.56
31346;BME280;21711;49.708;18.568;2023-02-22T11:38:16;97394.63;;;11.27;68.00
31346;BME280;21711;49.708;18.568;2023-02-22T11:40:44;97387.91;;;10.90;68.23
31346;BME280;21711;49.708;18.568;2023-02-22T11:43:18;97388.41;;;11.02;69.14
31346;BME280;21711;49.708;18.568;2023-02-22T11:48:55;97387.53;;;11.17;68.23
31346;BME280;21711;49.708;18.568;2023-02-22T12:00:04;97386.13;;;10.80;70.72
31346;BME280;21711;49.708;18.568;2023-02-22T12:03:36;97382.63;;;11.40;70.88
31346;BME280;21711;49.708;18.568;2023-02-22T12:09:19;97381.19;;;11.58;65.84
31346;BME280;21711;49.708;18.568;2023-02-22T12:20:18;97369.25;;;11.96;64.18
31346;BME280;21711;49.708;18.568;2023-02-22T12:26:02;97374.03;;;11.64;62.40
31346;BME280;21711;49.708;18.568;2023-02-22T12:29:00;97371.25;;;11.80;63.61
31346;BME280;21711;49.708;18.568;2023-02-22T12:31:36;97372.38;;;11.68;64.00
31346;BME280;21711;49.708;18.568;2023-02-22T12:37:06;97365.66;;;12.41;60.54
31346;BME280;21711;49.708;18.568;2023-02-22T12:42:59;97367.28;;;13.81;59.72
31346;BME280;21711;49.708;18.568;2023-02-22T12:48:51;97363.34;;;14.40;57.40
31346;BME280;21711;49.708;18.568;2023-02-22T12:51:47;97360.03;;;14.01;56.23
31346;BME280;21711;49.708;18.568;2023-02-22T12:54:39;97351.66;;;13.94;57.16
31346;BME280;21711;49.708;18.568;2023-02-22T13:00:05;97358.59;;;14.65;54.83
31346;BME280;21711;49.708;18.568;2023-02-22T13:02:53;97347.53;;;14.02;56.43
31346;BME280;21711;49.708;18.568;2023-02-22T13:05:23;97339.97;;;13.04;60.07
31346;BME280;21711;49.708;18.568;2023-02-22T13:11:07;97346.41;;;12.30;61.48
31346;BME280;21711;49.708;18.568;2023-02-22T13:23:18;97346.84;;;11.48;65.08
31346;BME280;21711;49.708;18.568;2023-02-22T13:26:02;97351.00;;;11.20;66.01
31346;BME280;21711;49.708;18.568;2023-02-22T13:29:12;97344.84;;;11.29;67.70
31346;BME280;21711;49.708;18.568;2023-02-22T13:34:43;97350.56;;;11.02;67.02
31346;BME280;21711;49.708;18.568;2023-02-22T13:52:25;97343.59;;;10.61;69.19
31346;BME280;21711;49.708;18.568;2023-02-22T13:54:49;97347.38;;;10.39;69.70
31346;BME280;21711;49.708;18.568;2023-02-22T14:13:24;97342.44;;;9.70;72.93
31346;BME280;21711;49.708;18.568;2023-02-22T14:18:42;97345.09;;;9.70;73.29
31346;BME280;21711;49.708;18.568;2023-02-22T14:21:21;97345.09;;;9.65;73.72
31346;BME280;21711;49.708;18.568;2023-02-22T14:23:54;97337.94;;;9.86;74.32
31346;BME280;21711;49.708;18.568;2023-02-22T14:26:35;97345.88;;;9.96;73.81
31346;BME280;21711;49.708;18.568;2023-02-22T14:32:00;97347.44;;;9.97;73.35
31346;BME280;21711;49.708;18.568;2023-02-22T14:37:32;97346.34;;;10.24;71.78
31346;BME280;21711;49.708;18.568;2023-02-22T14:40:15;97345.25;;;10.31;73.60
31346;BME280;21711;49.708;18.568;2023-02-22T14:43:11;97347.09;;;10.30;72.30
31346;BME280;21711;49.708;18.568;2023-02-22T14:48:35;97342.63;;;10.25;71.53
31346;BME280;21711;49.708;18.568;2023-02-22T14:51:26;97341.59;;;10.16;69.72
31346;BME280;21711;49.708;18.568;2023-02-22T14:54:08;97342.66;;;10.15;72.35
31346;BME280;21711;49.708;18.568;2023-02-22T14:56:57;97344.50;;;10.09;72.28
31346;BME280;21711;49.708;18.568;2023-02-22T14:59:27;97340.56;;;9.96;70.66
31346;BME280;21711;49.708;18.568;2023-02-22T15:02:11;97345.31;;;10.05;72.34
31346;BME280;21711;49.708;18.568;2023-02-22T15:04:39;97340.59;;;9.91;70.98
31346;BME280;21711;49.708;18.568;2023-02-22T15:07:27;97338.19;;;9.69;74.36
31346;BME280;21711;49.708;18.568;2023-02-22T15:10:40;97341.09;;;9.57;73.63
31346;BME280;21711;49.708;18.568;2023-02-22T15:13:25;97333.94;;;9.11;72.34
31346;BME280;21711;49.708;18.568;2023-02-22T15:16:01;97336.84;;;9.14;74.32
31346;BME280;21711;49.708;18.568;2023-02-22T15:18:36;97336.28;;;8.97;76.78
31346;BME280;21711;49.708;18.568;2023-02-22T15:21:32;97331.28;;;9.11;76.75
31346;BME280;21711;49.708;18.568;2023-02-22T15:24:05;97328.66;;;9.11;76.30
31346;BME280;21711;49.708;18.568;2023-02-22T15:26:42;97327.84;;;9.00;76.02
31346;BME280;21711;49.708;18.568;2023-02-22T15:29:40;97333.41;;;8.98;77.29
31346;BME280;21711;49.708;18.568;2023-02-22T15:35:28;97337.06;;;8.97;75.94
31346;BME280;21711;49.708;18.568;2023-02-22T15:40:38;97322.50;;;8.68;75.09
31346;BME280;21711;49.708;18.568;2023-02-22T15:43:22;97320.31;;;8.55;76.96
31346;BME280;21711;49.708;18.568;2023-02-22T15:45:51;97324.72;;;8.44;79.09
31346;BME280;21711;49.708;18.568;2023-02-22T15:48:18;97321.47;;;8.26;79.01
31346;BME280;21711;49.708;18.568;2023-02-22T15:51:08;97320.97;;;8.29;78.98
31346;BME280;21711;49.708;18.568;2023-02-22T15:53:44;97318.88;;;8.32;77.88
31346;BME280;21711;49.708;18.568;2023-02-22T15:56:26;97322.69;;;8.08;78.46
31346;BME280;21711;49.708;18.568;2023-02-22T15:59:15;97324.00;;;8.06;78.70
31346;BME280;21711;49.708;18.568;2023-02-22T16:01:49;97328.19;;;8.01;80.98
31346;BME280;21711;49.708;18.568;2023-02-22T16:04:21;97327.25;;;7.80;86.25
31346;BME280;21711;49.708;18.568;2023-02-22T16:06:51;97325.44;;;7.86;87.68
31346;BME280;21711;49.708;18.568;2023-02-22T16:09:23;97334.69;;;7.88;85.48
31346;BME280;21711;49.708;18.568;2023-02-22T16:12:22;97325.38;;;7.75;83.78
31346;BME280;21711;49.708;18.568;2023-02-22T16:14:50;97333.47;;;7.63;82.83
31346;BME280;21711;49.708;18.568;2023-02-22T16:17:34;97328.31;;;7.46;90.31
31346;BME280;21711;49.708;18.568;2023-02-22T16:22:40;97337.34;;;7.56;90.78